<?xml version="1.0" encoding="UTF-8" standalone="no" ?><gpx xmlns="http://www.topografix.com/GPX/1/1" xmlns:gpxx="http://www.garmin.com/xmlschemas/GpxExtensions/v3" xmlns:gpxtrkx="http://www.garmin.com/xmlschemas/TrackStatsExtension/v1" xmlns:wptx1="http://www.garmin.com/xmlschemas/WaypointExtension/v1" xmlns:gpxtpx="http://www.garmin.com/xmlschemas/TrackPointExtension/v1" creator="Oregon 700" version="1.1" xmlns:xsi="http://www.w3.org/2001/XMLSchema-instance" xsi:schemaLocation="http://www.topografix.com/GPX/1/1 http://www.topografix.com/GPX/1/1/gpx.xsd http://www.garmin.com/xmlschemas/GpxExtensions/v3 http://www8.garmin.com/xmlschemas/GpxExtensionsv3.xsd http://www.garmin.com/xmlschemas/TrackStatsExtension/v1 http://www8.garmin.com/xmlschemas/TrackStatsExtension.xsd http://www.garmin.com/xmlschemas/WaypointExtension/v1 http://www8.garmin.com/xmlschemas/WaypointExtensionv1.xsd http://www.garmin.com/xmlschemas/TrackPointExtension/v1 http://www.garmin.com/xmlschemas/TrackPointExtensionv1.xsd"><metadata><link href="http://www.garmin.com"><text>Garmin International</text></link><time>2023-10-11T18:17:06Z</time></metadata><trk><name>Current Track: 11 OCT 2023 10:05</name><extensions><gpxx:TrackExtension><gpxx:DisplayColor>Cyan</gpxx:DisplayColor></gpxx:TrackExtension><gpxtrkx:TrackStatsExtension><gpxtrkx:Distance>4577.000</gpxtrkx:Distance><gpxtrkx:TimerTime>8172</gpxtrkx:TimerTime><gpxtrkx:TotalElapsedTime>33102</gpxtrkx:TotalElapsedTime><gpxtrkx:MovingTime>6959</gpxtrkx:MovingTime><gpxtrkx:StoppedTime>1213</gpxtrkx:StoppedTime><gpxtrkx:MovingSpeed>0.658</gpxtrkx:MovingSpeed><gpxtrkx:MaxSpeed>1.251</gpxtrkx:MaxSpeed><gpxtrkx:MaxElevation>208.252</gpxtrkx:MaxElevation><gpxtrkx:MinElevation>112.914</gpxtrkx:MinElevation><gpxtrkx:Ascent>110.000</gpxtrkx:Ascent><gpxtrkx:Descent>110.515</gpxtrkx:Descent><gpxtrkx:AvgAscentRate>0.070</gpxtrkx:AvgAscentRate><gpxtrkx:MaxAscentRate>0.159</gpxtrkx:MaxAscentRate><gpxtrkx:AvgDescentRate>0.033</gpxtrkx:AvgDescentRate><gpxtrkx:MaxDescentRate>-0.103</gpxtrkx:MaxDescentRate><gpxtrkx:Calories>231</gpxtrkx:Calories></gpxtrkx:TrackStatsExtension></extensions><trkseg><trkpt lat="51.8262086995" lon="-2.0472566318"><ele>111.88</ele><time>2023-10-11T09:05:24Z</time></trkpt><trkpt lat="51.8261988088" lon="-2.0472560450"><ele>114.00</ele><time>2023-10-11T09:05:52Z</time></trkpt><trkpt lat="51.8262064364" lon="-2.0472647622"><ele>113.87</ele><time>2023-10-11T09:06:07Z</time></trkpt><trkpt lat="51.8262600806" lon="-2.0474213362"><ele>113.21</ele><time>2023-10-11T09:06:26Z</time></trkpt><trkpt lat="51.8261897564" lon="-2.0475991163"><ele>112.52</ele><time>2023-10-11T09:06:46Z</time></trkpt><trkpt lat="51.8261782732" lon="-2.0476052351"><ele>112.53</ele><time>2023-10-11T09:06:47Z</time></trkpt><trkpt lat="51.8260529637" lon="-2.0476980228"><ele>114.02</ele><time>2023-10-11T09:07:02Z</time></trkpt><trkpt lat="51.8259198591" lon="-2.0477678441"><ele>115.04</ele><time>2023-10-11T09:07:20Z</time></trkpt><trkpt lat="51.8258345313" lon="-2.0478238352"><ele>116.15</ele><time>2023-10-11T09:07:35Z</time></trkpt><trkpt lat="51.8257910293" lon="-2.0478228293"><ele>116.66</ele><time>2023-10-11T09:07:50Z</time></trkpt><trkpt lat="51.8257194478" lon="-2.0478105079"><ele>117.52</ele><time>2023-10-11T09:08:06Z</time></trkpt><trkpt lat="51.8256665580" lon="-2.0478766412"><ele>117.71</ele><time>2023-10-11T09:08:25Z</time></trkpt><trkpt lat="51.8256202899" lon="-2.0479720272"><ele>117.87</ele><time>2023-10-11T09:08:38Z</time></trkpt><trkpt lat="51.8255905341" lon="-2.0481140167"><ele>117.52</ele><time>2023-10-11T09:08:52Z</time></trkpt><trkpt lat="51.8255335372" lon="-2.0482938923"><ele>116.69</ele><time>2023-10-11T09:09:12Z</time></trkpt><trkpt lat="51.8255099002" lon="-2.0484417491"><ele>116.67</ele><time>2023-10-11T09:09:31Z</time></trkpt><trkpt lat="51.8254490476" lon="-2.0486134943"><ele>117.00</ele><time>2023-10-11T09:09:50Z</time></trkpt><trkpt lat="51.8253763765" lon="-2.0486897696"><ele>117.47</ele><time>2023-10-11T09:10:11Z</time></trkpt><trkpt lat="51.8253280129" lon="-2.0487765223"><ele>117.41</ele><time>2023-10-11T09:10:25Z</time></trkpt><trkpt lat="51.8252866901" lon="-2.0489036757"><ele>117.36</ele><time>2023-10-11T09:10:39Z</time></trkpt><trkpt lat="51.8252044637" lon="-2.0491136424"><ele>117.75</ele><time>2023-10-11T09:10:59Z</time></trkpt><trkpt lat="51.8251237459" lon="-2.0492257923"><ele>117.91</ele><time>2023-10-11T09:11:18Z</time></trkpt><trkpt lat="51.8250332214" lon="-2.0493723080"><ele>118.01</ele><time>2023-10-11T09:11:41Z</time></trkpt><trkpt lat="51.8249236699" lon="-2.0495749824"><ele>117.37</ele><time>2023-10-11T09:12:01Z</time></trkpt><trkpt lat="51.8248896394" lon="-2.0497296285"><ele>116.99</ele><time>2023-10-11T09:12:14Z</time></trkpt><trkpt lat="51.8248145375" lon="-2.0499118511"><ele>116.25</ele><time>2023-10-11T09:12:32Z</time></trkpt><trkpt lat="51.8247423694" lon="-2.0501161180"><ele>114.48</ele><time>2023-10-11T09:12:52Z</time></trkpt><trkpt lat="51.8246541917" lon="-2.0502432715"><ele>113.33</ele><time>2023-10-11T09:13:14Z</time></trkpt><trkpt lat="51.8246051576" lon="-2.0503987558"><ele>113.32</ele><time>2023-10-11T09:13:32Z</time></trkpt><trkpt lat="51.8245769944" lon="-2.0505267475"><ele>113.88</ele><time>2023-10-11T09:13:50Z</time></trkpt><trkpt lat="51.8245779164" lon="-2.0507182740"><ele>114.66</ele><time>2023-10-11T09:14:07Z</time></trkpt><trkpt lat="51.8245447241" lon="-2.0508539770"><ele>114.69</ele><time>2023-10-11T09:14:24Z</time></trkpt><trkpt lat="51.8245117832" lon="-2.0510336850"><ele>115.53</ele><time>2023-10-11T09:14:41Z</time></trkpt><trkpt lat="51.8244624976" lon="-2.0512250438"><ele>116.13</ele><time>2023-10-11T09:15:02Z</time></trkpt><trkpt lat="51.8244154751" lon="-2.0513929334"><ele>116.37</ele><time>2023-10-11T09:15:23Z</time></trkpt><trkpt lat="51.8243732303" lon="-2.0513834618"><ele>117.09</ele><time>2023-10-11T09:15:42Z</time></trkpt><trkpt lat="51.8243762478" lon="-2.0514141396"><ele>116.88</ele><time>2023-10-11T09:16:01Z</time></trkpt><trkpt lat="51.8243497610" lon="-2.0514593180"><ele>116.83</ele><time>2023-10-11T09:16:23Z</time></trkpt><trkpt lat="51.8243511859" lon="-2.0516337454"><ele>117.01</ele><time>2023-10-11T09:16:42Z</time></trkpt><trkpt lat="51.8243572209" lon="-2.0517544448"><ele>117.01</ele><time>2023-10-11T09:16:55Z</time></trkpt><trkpt lat="51.8243309855" lon="-2.0519028883"><ele>117.01</ele><time>2023-10-11T09:17:08Z</time></trkpt><trkpt lat="51.8242825381" lon="-2.0520641562"><ele>117.01</ele><time>2023-10-11T09:17:26Z</time></trkpt><trkpt lat="51.8242256250" lon="-2.0522257593"><ele>119.53</ele><time>2023-10-11T09:17:43Z</time></trkpt><trkpt lat="51.8242288101" lon="-2.0523979235"><ele>119.77</ele><time>2023-10-11T09:18:00Z</time></trkpt><trkpt lat="51.8241774291" lon="-2.0525928866"><ele>120.17</ele><time>2023-10-11T09:18:18Z</time></trkpt><trkpt lat="51.8241313286" lon="-2.0527927112"><ele>121.02</ele><time>2023-10-11T09:18:38Z</time></trkpt><trkpt lat="51.8240623455" lon="-2.0529036038"><ele>122.09</ele><time>2023-10-11T09:18:58Z</time></trkpt><trkpt lat="51.8240375351" lon="-2.0530771930"><ele>122.07</ele><time>2023-10-11T09:19:15Z</time></trkpt><trkpt lat="51.8239956256" lon="-2.0532690547"><ele>122.83</ele><time>2023-10-11T09:19:34Z</time></trkpt><trkpt lat="51.8239952903" lon="-2.0534451585"><ele>123.08</ele><time>2023-10-11T09:19:54Z</time></trkpt><trkpt lat="51.8239861540" lon="-2.0535538718"><ele>123.35</ele><time>2023-10-11T09:20:15Z</time></trkpt><trkpt lat="51.8239327613" lon="-2.0537455659"><ele>123.65</ele><time>2023-10-11T09:20:33Z</time></trkpt><trkpt lat="51.8239066098" lon="-2.0539487433"><ele>124.57</ele><time>2023-10-11T09:20:50Z</time></trkpt><trkpt lat="51.8238879181" lon="-2.0541498251"><ele>124.58</ele><time>2023-10-11T09:21:11Z</time></trkpt><trkpt lat="51.8238906842" lon="-2.0542895515"><ele>124.45</ele><time>2023-10-11T09:21:30Z</time></trkpt><trkpt lat="51.8238849845" lon="-2.0544560999"><ele>125.06</ele><time>2023-10-11T09:21:51Z</time></trkpt><trkpt lat="51.8238389678" lon="-2.0544768032"><ele>125.20</ele><time>2023-10-11T09:22:15Z</time></trkpt><trkpt lat="51.8238360342" lon="-2.0546574332"><ele>125.57</ele><time>2023-10-11T09:22:32Z</time></trkpt><trkpt lat="51.8238454219" lon="-2.0548782963"><ele>126.00</ele><time>2023-10-11T09:22:54Z</time></trkpt><trkpt lat="51.8238461763" lon="-2.0551392250"><ele>126.13</ele><time>2023-10-11T09:23:16Z</time></trkpt><trkpt lat="51.8238511216" lon="-2.0554054342"><ele>125.75</ele><time>2023-10-11T09:23:39Z</time></trkpt><trkpt lat="51.8238473497" lon="-2.0555813704"><ele>124.84</ele><time>2023-10-11T09:24:00Z</time></trkpt><trkpt lat="51.8238202762" lon="-2.0557170734"><ele>123.37</ele><time>2023-10-11T09:24:19Z</time></trkpt><trkpt lat="51.8237737566" lon="-2.0558755752"><ele>122.91</ele><time>2023-10-11T09:24:40Z</time></trkpt><trkpt lat="51.8237269018" lon="-2.0561601408"><ele>123.29</ele><time>2023-10-11T09:25:01Z</time></trkpt><trkpt lat="51.8236880098" lon="-2.0563147869"><ele>123.52</ele><time>2023-10-11T09:25:17Z</time></trkpt><trkpt lat="51.8236498721" lon="-2.0564779826"><ele>124.78</ele><time>2023-10-11T09:25:39Z</time></trkpt><trkpt lat="51.8235884327" lon="-2.0565136895"><ele>125.04</ele><time>2023-10-11T09:26:11Z</time></trkpt><trkpt lat="51.8235336989" lon="-2.0565530844"><ele>125.12</ele><time>2023-10-11T09:26:31Z</time></trkpt><trkpt lat="51.8234657217" lon="-2.0566409267"><ele>125.50</ele><time>2023-10-11T09:26:50Z</time></trkpt><trkpt lat="51.8234091438" lon="-2.0566992648"><ele>125.64</ele><time>2023-10-11T09:27:08Z</time></trkpt><trkpt lat="51.8233542424" lon="-2.0567565132"><ele>125.77</ele><time>2023-10-11T09:27:28Z</time></trkpt><trkpt lat="51.8232601974" lon="-2.0568534080"><ele>126.15</ele><time>2023-10-11T09:27:47Z</time></trkpt><trkpt lat="51.8232050445" lon="-2.0568986703"><ele>126.25</ele><time>2023-10-11T09:28:04Z</time></trkpt><trkpt lat="51.8231023662" lon="-2.0570366364"><ele>126.75</ele><time>2023-10-11T09:28:24Z</time></trkpt><trkpt lat="51.8230001070" lon="-2.0571124088"><ele>127.27</ele><time>2023-10-11T09:28:42Z</time></trkpt><trkpt lat="51.8229436129" lon="-2.0572077110"><ele>127.78</ele><time>2023-10-11T09:28:57Z</time></trkpt><trkpt lat="51.8228125200" lon="-2.0572850760"><ele>128.91</ele><time>2023-10-11T09:29:17Z</time></trkpt><trkpt lat="51.8228094187" lon="-2.0572888479"><ele>128.95</ele><time>2023-10-11T09:29:18Z</time></trkpt><trkpt lat="51.8227328081" lon="-2.0573553164"><ele>129.27</ele><time>2023-10-11T09:29:35Z</time></trkpt><trkpt lat="51.8226499110" lon="-2.0574124809"><ele>130.14</ele><time>2023-10-11T09:29:49Z</time></trkpt><trkpt lat="51.8226140365" lon="-2.0574385487"><ele>130.91</ele><time>2023-10-11T09:30:11Z</time></trkpt><trkpt lat="51.8226166349" lon="-2.0575096272"><ele>130.83</ele><time>2023-10-11T09:30:39Z</time></trkpt><trkpt lat="51.8225546088" lon="-2.0575757604"><ele>130.78</ele><time>2023-10-11T09:30:56Z</time></trkpt><trkpt lat="51.8224578816" lon="-2.0576030016"><ele>130.55</ele><time>2023-10-11T09:31:13Z</time></trkpt><trkpt lat="51.8223890662" lon="-2.0576231182"><ele>130.55</ele><time>2023-10-11T09:31:25Z</time></trkpt><trkpt lat="51.8223021459" lon="-2.0576401334"><ele>130.55</ele><time>2023-10-11T09:31:37Z</time></trkpt><trkpt lat="51.8222921714" lon="-2.0576404687"><ele>130.55</ele><time>2023-10-11T09:31:38Z</time></trkpt><trkpt lat="51.8222658522" lon="-2.0576037560"><ele>130.55</ele><time>2023-10-11T09:31:55Z</time></trkpt><trkpt lat="51.8222441431" lon="-2.0576093718"><ele>134.25</ele><time>2023-10-11T09:32:00Z</time></trkpt><trkpt lat="51.8222407904" lon="-2.0576077793"><ele>134.30</ele><time>2023-10-11T09:32:01Z</time></trkpt><trkpt lat="51.8221366871" lon="-2.0575983915"><ele>135.88</ele><time>2023-10-11T09:32:17Z</time></trkpt><trkpt lat="51.8220937718" lon="-2.0575581584"><ele>136.10</ele><time>2023-10-11T09:32:37Z</time></trkpt><trkpt lat="51.8220470008" lon="-2.0575648639"><ele>136.37</ele><time>2023-10-11T09:32:58Z</time></trkpt><trkpt lat="51.8219332583" lon="-2.0576175861"><ele>138.96</ele><time>2023-10-11T09:33:15Z</time></trkpt><trkpt lat="51.8218770158" lon="-2.0575899258"><ele>140.62</ele><time>2023-10-11T09:33:30Z</time></trkpt><trkpt lat="51.8218745012" lon="-2.0575467590"><ele>141.11</ele><time>2023-10-11T09:33:50Z</time></trkpt><trkpt lat="51.8218227010" lon="-2.0575318392"><ele>141.93</ele><time>2023-10-11T09:34:07Z</time></trkpt><trkpt lat="51.8217684701" lon="-2.0575285703"><ele>143.72</ele><time>2023-10-11T09:34:25Z</time></trkpt><trkpt lat="51.8217454199" lon="-2.0575541351"><ele>143.75</ele><time>2023-10-11T09:34:44Z</time></trkpt><trkpt lat="51.8216815498" lon="-2.0576001517"><ele>145.23</ele><time>2023-10-11T09:35:00Z</time></trkpt><trkpt lat="51.8216490280" lon="-2.0576145686"><ele>146.48</ele><time>2023-10-11T09:35:20Z</time></trkpt><trkpt lat="51.8216086272" lon="-2.0575776882"><ele>146.51</ele><time>2023-10-11T09:35:46Z</time></trkpt><trkpt lat="51.8215331063" lon="-2.0576641895"><ele>147.32</ele><time>2023-10-11T09:36:00Z</time></trkpt><trkpt lat="51.8214730918" lon="-2.0577339269"><ele>149.40</ele><time>2023-10-11T09:36:13Z</time></trkpt><trkpt lat="51.8214353733" lon="-2.0577839669"><ele>152.07</ele><time>2023-10-11T09:36:31Z</time></trkpt><trkpt lat="51.8213365506" lon="-2.0578195900"><ele>154.46</ele><time>2023-10-11T09:36:54Z</time></trkpt><trkpt lat="51.8212395720" lon="-2.0578697138"><ele>157.28</ele><time>2023-10-11T09:37:13Z</time></trkpt><trkpt lat="51.8212048709" lon="-2.0578494295"><ele>159.08</ele><time>2023-10-11T09:37:32Z</time></trkpt><trkpt lat="51.8212495465" lon="-2.0579241961"><ele>158.89</ele><time>2023-10-11T09:37:59Z</time></trkpt><trkpt lat="51.8212420866" lon="-2.0579033252"><ele>158.94</ele><time>2023-10-11T09:38:24Z</time></trkpt><trkpt lat="51.8212384824" lon="-2.0578960329"><ele>159.07</ele><time>2023-10-11T09:38:52Z</time></trkpt><trkpt lat="51.8212359678" lon="-2.0579117909"><ele>159.17</ele><time>2023-10-11T09:39:18Z</time></trkpt><trkpt lat="51.8211969081" lon="-2.0579455700"><ele>159.17</ele><time>2023-10-11T09:39:30Z</time></trkpt><trkpt lat="51.8211358879" lon="-2.0579801034"><ele>159.17</ele><time>2023-10-11T09:39:44Z</time></trkpt><trkpt lat="51.8210742809" lon="-2.0580091048"><ele>159.17</ele><time>2023-10-11T09:39:57Z</time></trkpt><trkpt lat="51.8210545834" lon="-2.0580587257"><ele>164.60</ele><time>2023-10-11T09:40:07Z</time></trkpt><trkpt lat="51.8210591096" lon="-2.0580743160"><ele>164.62</ele><time>2023-10-11T09:40:08Z</time></trkpt><trkpt lat="51.8210095726" lon="-2.0581153873"><ele>165.79</ele><time>2023-10-11T09:40:20Z</time></trkpt><trkpt lat="51.8209599517" lon="-2.0581194945"><ele>167.39</ele><time>2023-10-11T09:40:31Z</time></trkpt><trkpt lat="51.8209261727" lon="-2.0581033174"><ele>168.11</ele><time>2023-10-11T09:40:57Z</time></trkpt><trkpt lat="51.8208957464" lon="-2.0581376832"><ele>168.33</ele><time>2023-10-11T09:41:23Z</time></trkpt><trkpt lat="51.8208537530" lon="-2.0581329055"><ele>168.82</ele><time>2023-10-11T09:41:42Z</time></trkpt><trkpt lat="51.8208431080" lon="-2.0581606496"><ele>169.80</ele><time>2023-10-11T09:42:03Z</time></trkpt><trkpt lat="51.8207756337" lon="-2.0582234301"><ele>171.72</ele><time>2023-10-11T09:42:17Z</time></trkpt><trkpt lat="51.8207250070" lon="-2.0582668483"><ele>174.00</ele><time>2023-10-11T09:42:35Z</time></trkpt><trkpt lat="51.8206888810" lon="-2.0582550298"><ele>174.68</ele><time>2023-10-11T09:42:59Z</time></trkpt><trkpt lat="51.8206377514" lon="-2.0582334045"><ele>174.39</ele><time>2023-10-11T09:43:26Z</time></trkpt><trkpt lat="51.8206012901" lon="-2.0582961850"><ele>175.83</ele><time>2023-10-11T09:43:39Z</time></trkpt><trkpt lat="51.8205706961" lon="-2.0583483204"><ele>177.22</ele><time>2023-10-11T09:43:52Z</time></trkpt><trkpt lat="51.8205427006" lon="-2.0584178064"><ele>179.27</ele><time>2023-10-11T09:44:10Z</time></trkpt><trkpt lat="51.8204738013" lon="-2.0584906451"><ele>179.86</ele><time>2023-10-11T09:44:29Z</time></trkpt><trkpt lat="51.8204041477" lon="-2.0585121028"><ele>181.96</ele><time>2023-10-11T09:44:43Z</time></trkpt><trkpt lat="51.8203417026" lon="-2.0585493185"><ele>183.59</ele><time>2023-10-11T09:44:57Z</time></trkpt><trkpt lat="51.8202509265" lon="-2.0585431159"><ele>185.57</ele><time>2023-10-11T09:45:12Z</time></trkpt><trkpt lat="51.8202253617" lon="-2.0586242527"><ele>186.10</ele><time>2023-10-11T09:45:36Z</time></trkpt><trkpt lat="51.8202189077" lon="-2.0586746279"><ele>185.72</ele><time>2023-10-11T09:45:59Z</time></trkpt><trkpt lat="51.8202236015" lon="-2.0586520806"><ele>185.76</ele><time>2023-10-11T09:46:25Z</time></trkpt><trkpt lat="51.8202021439" lon="-2.0586503204"><ele>185.76</ele><time>2023-10-11T09:46:43Z</time></trkpt><trkpt lat="51.8202109449" lon="-2.0586087462"><ele>185.76</ele><time>2023-10-11T09:47:10Z</time></trkpt><trkpt lat="51.8202045746" lon="-2.0586389210"><ele>185.76</ele><time>2023-10-11T09:47:27Z</time></trkpt><trkpt lat="51.8202451430" lon="-2.0586166251"><ele>185.76</ele><time>2023-10-11T09:47:59Z</time></trkpt><trkpt lat="51.8202580512" lon="-2.0586302038"><ele>185.76</ele><time>2023-10-11T09:48:31Z</time></trkpt><trkpt lat="51.8202620745" lon="-2.0586197264"><ele>185.76</ele><time>2023-10-11T09:48:56Z</time></trkpt><trkpt lat="51.8202792574" lon="-2.0585958380"><ele>185.76</ele><time>2023-10-11T09:49:21Z</time></trkpt><trkpt lat="51.8203139585" lon="-2.0586771425"><ele>185.76</ele><time>2023-10-11T09:49:42Z</time></trkpt><trkpt lat="51.8202614877" lon="-2.0586600434"><ele>185.76</ele><time>2023-10-11T09:50:03Z</time></trkpt><trkpt lat="51.8201284669" lon="-2.0586988516"><ele>185.76</ele><time>2023-10-11T09:50:15Z</time></trkpt><trkpt lat="51.8200769182" lon="-2.0587167889"><ele>189.22</ele><time>2023-10-11T09:50:18Z</time></trkpt><trkpt lat="51.8200656027" lon="-2.0587185491"><ele>189.29</ele><time>2023-10-11T09:50:19Z</time></trkpt><trkpt lat="51.8200268783" lon="-2.0587409288"><ele>189.76</ele><time>2023-10-11T09:50:23Z</time></trkpt><trkpt lat="51.8199119624" lon="-2.0588464569"><ele>192.25</ele><time>2023-10-11T09:50:39Z</time></trkpt><trkpt lat="51.8198304065" lon="-2.0589625463"><ele>193.98</ele><time>2023-10-11T09:50:52Z</time></trkpt><trkpt lat="51.8197012413" lon="-2.0590195432"><ele>196.65</ele><time>2023-10-11T09:51:09Z</time></trkpt><trkpt lat="51.8196876626" lon="-2.0590190403"><ele>197.01</ele><time>2023-10-11T09:51:12Z</time></trkpt><trkpt lat="51.8196067773" lon="-2.0590461139"><ele>197.71</ele><time>2023-10-11T09:51:25Z</time></trkpt><trkpt lat="51.8195204437" lon="-2.0591321122"><ele>198.89</ele><time>2023-10-11T09:51:42Z</time></trkpt><trkpt lat="51.8194154184" lon="-2.0591925457"><ele>199.82</ele><time>2023-10-11T09:51:56Z</time></trkpt><trkpt lat="51.8193564937" lon="-2.0592726767"><ele>201.24</ele><time>2023-10-11T09:52:12Z</time></trkpt><trkpt lat="51.8193159252" lon="-2.0592992473"><ele>201.95</ele><time>2023-10-11T09:52:19Z</time></trkpt><trkpt lat="51.8192138337" lon="-2.0593383908"><ele>203.60</ele><time>2023-10-11T09:52:37Z</time></trkpt><trkpt lat="51.8190411665" lon="-2.0593577530"><ele>204.63</ele><time>2023-10-11T09:52:59Z</time></trkpt><trkpt lat="51.8189257476" lon="-2.0592867583"><ele>205.29</ele><time>2023-10-11T09:53:17Z</time></trkpt><trkpt lat="51.8189469539" lon="-2.0592272468"><ele>205.35</ele><time>2023-10-11T09:53:39Z</time></trkpt><trkpt lat="51.8189464509" lon="-2.0592096448"><ele>205.09</ele><time>2023-10-11T09:54:02Z</time></trkpt><trkpt lat="51.8189068045" lon="-2.0591832418"><ele>204.83</ele><time>2023-10-11T09:54:25Z</time></trkpt><trkpt lat="51.8188755400" lon="-2.0590969082"><ele>205.08</ele><time>2023-10-11T09:54:49Z</time></trkpt><trkpt lat="51.8189145159" lon="-2.0591036137"><ele>205.16</ele><time>2023-10-11T09:55:15Z</time></trkpt><trkpt lat="51.8189147674" lon="-2.0591232274"><ele>204.96</ele><time>2023-10-11T09:55:47Z</time></trkpt><trkpt lat="51.8189278431" lon="-2.0591410808"><ele>204.96</ele><time>2023-10-11T09:56:13Z</time></trkpt><trkpt lat="51.8189246580" lon="-2.0591309387"><ele>204.96</ele><time>2023-10-11T09:56:38Z</time></trkpt><trkpt lat="51.8189125042" lon="-2.0591414999"><ele>204.96</ele><time>2023-10-11T09:57:02Z</time></trkpt><trkpt lat="51.8189041223" lon="-2.0591446850"><ele>204.96</ele><time>2023-10-11T09:57:26Z</time></trkpt><trkpt lat="51.8188997637" lon="-2.0591560006"><ele>204.96</ele><time>2023-10-11T09:57:51Z</time></trkpt><trkpt lat="51.8188952375" lon="-2.0591464452"><ele>204.96</ele><time>2023-10-11T09:58:19Z</time></trkpt><trkpt lat="51.8188870233" lon="-2.0590916276"><ele>204.96</ele><time>2023-10-11T09:58:48Z</time></trkpt><trkpt lat="51.8188961595" lon="-2.0591352135"><ele>204.96</ele><time>2023-10-11T09:59:16Z</time></trkpt><trkpt lat="51.8189759552" lon="-2.0591088943"><ele>204.96</ele><time>2023-10-11T09:59:38Z</time></trkpt><trkpt lat="51.8190345448" lon="-2.0590803958"><ele>204.55</ele><time>2023-10-11T09:59:56Z</time></trkpt><trkpt lat="51.8190321978" lon="-2.0590927172"><ele>204.41</ele><time>2023-10-11T10:00:21Z</time></trkpt><trkpt lat="51.8190112431" lon="-2.0591029432"><ele>204.34</ele><time>2023-10-11T10:00:48Z</time></trkpt><trkpt lat="51.8189915456" lon="-2.0592137519"><ele>204.41</ele><time>2023-10-11T10:01:16Z</time></trkpt><trkpt lat="51.8189378176" lon="-2.0592497103"><ele>205.02</ele><time>2023-10-11T10:01:31Z</time></trkpt><trkpt lat="51.8189408351" lon="-2.0592381433"><ele>205.03</ele><time>2023-10-11T10:01:56Z</time></trkpt><trkpt lat="51.8189386558" lon="-2.0591719262"><ele>205.79</ele><time>2023-10-11T10:02:24Z</time></trkpt><trkpt lat="51.8189225625" lon="-2.0591175277"><ele>205.48</ele><time>2023-10-11T10:02:49Z</time></trkpt><trkpt lat="51.8189386558" lon="-2.0591349620"><ele>205.53</ele><time>2023-10-11T10:03:13Z</time></trkpt><trkpt lat="51.8189588562" lon="-2.0591503009"><ele>205.64</ele><time>2023-10-11T10:03:39Z</time></trkpt><trkpt lat="51.8189453613" lon="-2.0591435954"><ele>205.64</ele><time>2023-10-11T10:04:06Z</time></trkpt><trkpt lat="51.8189480435" lon="-2.0591316931"><ele>205.64</ele><time>2023-10-11T10:04:32Z</time></trkpt><trkpt lat="51.8189265020" lon="-2.0591437630"><ele>205.64</ele><time>2023-10-11T10:05:01Z</time></trkpt><trkpt lat="51.8189353868" lon="-2.0591549110"><ele>205.64</ele><time>2023-10-11T10:05:25Z</time></trkpt><trkpt lat="51.8189116661" lon="-2.0591343753"><ele>205.64</ele><time>2023-10-11T10:05:53Z</time></trkpt><trkpt lat="51.8189108279" lon="-2.0591077209"><ele>205.64</ele><time>2023-10-11T10:06:23Z</time></trkpt><trkpt lat="51.8189139292" lon="-2.0591453556"><ele>205.64</ele><time>2023-10-11T10:06:49Z</time></trkpt><trkpt lat="51.8189207185" lon="-2.0591485407"><ele>205.64</ele><time>2023-10-11T10:07:16Z</time></trkpt><trkpt lat="51.8189586047" lon="-2.0591645502"><ele>205.64</ele><time>2023-10-11T10:07:39Z</time></trkpt><trkpt lat="51.8189228140" lon="-2.0591239817"><ele>205.64</ele><time>2023-10-11T10:08:15Z</time></trkpt><trkpt lat="51.8189392425" lon="-2.0592087228"><ele>205.64</ele><time>2023-10-11T10:08:38Z</time></trkpt><trkpt lat="51.8188598659" lon="-2.0592846628"><ele>205.64</ele><time>2023-10-11T10:08:55Z</time></trkpt><trkpt lat="51.8188332953" lon="-2.0593217947"><ele>205.64</ele><time>2023-10-11T10:09:21Z</time></trkpt><trkpt lat="51.8188505620" lon="-2.0594793744"><ele>205.64</ele><time>2023-10-11T10:09:36Z</time></trkpt><trkpt lat="51.8188540824" lon="-2.0596335176"><ele>205.64</ele><time>2023-10-11T10:09:51Z</time></trkpt><trkpt lat="51.8188461196" lon="-2.0598125551"><ele>206.56</ele><time>2023-10-11T10:10:05Z</time></trkpt><trkpt lat="51.8188575190" lon="-2.0600322448"><ele>207.27</ele><time>2023-10-11T10:10:24Z</time></trkpt><trkpt lat="51.8188420124" lon="-2.0602316502"><ele>207.52</ele><time>2023-10-11T10:10:45Z</time></trkpt><trkpt lat="51.8188300263" lon="-2.0604185667"><ele>207.67</ele><time>2023-10-11T10:10:59Z</time></trkpt><trkpt lat="51.8188255839" lon="-2.0606047288"><ele>208.18</ele><time>2023-10-11T10:11:16Z</time></trkpt><trkpt lat="51.8188667390" lon="-2.0608146116"><ele>207.67</ele><time>2023-10-11T10:11:37Z</time></trkpt><trkpt lat="51.8188919686" lon="-2.0609563496"><ele>207.57</ele><time>2023-10-11T10:11:49Z</time></trkpt><trkpt lat="51.8189485464" lon="-2.0610876102"><ele>207.05</ele><time>2023-10-11T10:12:06Z</time></trkpt><trkpt lat="51.8190080579" lon="-2.0612694137"><ele>207.10</ele><time>2023-10-11T10:12:26Z</time></trkpt><trkpt lat="51.8190404121" lon="-2.0614129957"><ele>206.88</ele><time>2023-10-11T10:12:42Z</time></trkpt><trkpt lat="51.8190793041" lon="-2.0615880936"><ele>206.63</ele><time>2023-10-11T10:12:59Z</time></trkpt><trkpt lat="51.8190985825" lon="-2.0617497806"><ele>206.63</ele><time>2023-10-11T10:13:15Z</time></trkpt><trkpt lat="51.8191461917" lon="-2.0619112160"><ele>206.52</ele><time>2023-10-11T10:13:32Z</time></trkpt><trkpt lat="51.8191930465" lon="-2.0620278083"><ele>206.68</ele><time>2023-10-11T10:13:46Z</time></trkpt><trkpt lat="51.8192036916" lon="-2.0621497650"><ele>206.80</ele><time>2023-10-11T10:13:58Z</time></trkpt><trkpt lat="51.8192293402" lon="-2.0622838754"><ele>206.75</ele><time>2023-10-11T10:14:10Z</time></trkpt><trkpt lat="51.8192396499" lon="-2.0623533614"><ele>206.68</ele><time>2023-10-11T10:14:24Z</time></trkpt><trkpt lat="51.8192300107" lon="-2.0623621624"><ele>206.68</ele><time>2023-10-11T10:14:47Z</time></trkpt><trkpt lat="51.8192876782" lon="-2.0624894835"><ele>206.68</ele><time>2023-10-11T10:15:04Z</time></trkpt><trkpt lat="51.8193203676" lon="-2.0626063272"><ele>206.68</ele><time>2023-10-11T10:15:24Z</time></trkpt><trkpt lat="51.8193408195" lon="-2.0626904815"><ele>206.68</ele><time>2023-10-11T10:15:39Z</time></trkpt><trkpt lat="51.8193905242" lon="-2.0628121868"><ele>206.68</ele><time>2023-10-11T10:15:55Z</time></trkpt><trkpt lat="51.8194352835" lon="-2.0628836844"><ele>206.68</ele><time>2023-10-11T10:16:06Z</time></trkpt><trkpt lat="51.8194545619" lon="-2.0629442018"><ele>206.50</ele><time>2023-10-11T10:16:28Z</time></trkpt><trkpt lat="51.8195703998" lon="-2.0631635562"><ele>204.74</ele><time>2023-10-11T10:16:46Z</time></trkpt><trkpt lat="51.8196537159" lon="-2.0633353014"><ele>204.25</ele><time>2023-10-11T10:17:03Z</time></trkpt><trkpt lat="51.8196733296" lon="-2.0634032786"><ele>203.57</ele><time>2023-10-11T10:17:23Z</time></trkpt><trkpt lat="51.8197082821" lon="-2.0635508001"><ele>203.50</ele><time>2023-10-11T10:17:41Z</time></trkpt><trkpt lat="51.8197882455" lon="-2.0636935439"><ele>203.16</ele><time>2023-10-11T10:18:00Z</time></trkpt><trkpt lat="51.8198786024" lon="-2.0638139080"><ele>202.38</ele><time>2023-10-11T10:18:22Z</time></trkpt><trkpt lat="51.8199366052" lon="-2.0639711525"><ele>201.57</ele><time>2023-10-11T10:18:39Z</time></trkpt><trkpt lat="51.8199620862" lon="-2.0640601683"><ele>200.98</ele><time>2023-10-11T10:18:53Z</time></trkpt><trkpt lat="51.8200392835" lon="-2.0642199274"><ele>199.59</ele><time>2023-10-11T10:19:10Z</time></trkpt><trkpt lat="51.8201096077" lon="-2.0643135533"><ele>199.82</ele><time>2023-10-11T10:19:26Z</time></trkpt><trkpt lat="51.8201883137" lon="-2.0644311514"><ele>198.93</ele><time>2023-10-11T10:19:41Z</time></trkpt><trkpt lat="51.8202412035" lon="-2.0645450614"><ele>199.00</ele><time>2023-10-11T10:20:00Z</time></trkpt><trkpt lat="51.8202909920" lon="-2.0646415371"><ele>198.63</ele><time>2023-10-11T10:20:12Z</time></trkpt><trkpt lat="51.8203657586" lon="-2.0648867916"><ele>197.34</ele><time>2023-10-11T10:20:36Z</time></trkpt><trkpt lat="51.8204770703" lon="-2.0650595427"><ele>197.04</ele><time>2023-10-11T10:20:56Z</time></trkpt><trkpt lat="51.8205643259" lon="-2.0652421005"><ele>196.70</ele><time>2023-10-11T10:21:14Z</time></trkpt><trkpt lat="51.8206347339" lon="-2.0654101577"><ele>196.03</ele><time>2023-10-11T10:21:35Z</time></trkpt><trkpt lat="51.8207201455" lon="-2.0655373950"><ele>195.11</ele><time>2023-10-11T10:21:56Z</time></trkpt><trkpt lat="51.8207426090" lon="-2.0655539073"><ele>194.49</ele><time>2023-10-11T10:22:09Z</time></trkpt><trkpt lat="51.8208327144" lon="-2.0657555759"><ele>194.18</ele><time>2023-10-11T10:22:27Z</time></trkpt><trkpt lat="51.8208830059" lon="-2.0658595953"><ele>193.47</ele><time>2023-10-11T10:22:40Z</time></trkpt><trkpt lat="51.8209339678" lon="-2.0660081226"><ele>192.16</ele><time>2023-10-11T10:22:55Z</time></trkpt><trkpt lat="51.8209831696" lon="-2.0661010779"><ele>191.64</ele><time>2023-10-11T10:23:08Z</time></trkpt><trkpt lat="51.8210673239" lon="-2.0663113799"><ele>191.97</ele><time>2023-10-11T10:23:27Z</time></trkpt><trkpt lat="51.8210864346" lon="-2.0664390363"><ele>192.12</ele><time>2023-10-11T10:23:46Z</time></trkpt><trkpt lat="51.8211446889" lon="-2.0665764157"><ele>191.86</ele><time>2023-10-11T10:24:07Z</time></trkpt><trkpt lat="51.8211510591" lon="-2.0665777568"><ele>191.71</ele><time>2023-10-11T10:24:29Z</time></trkpt><trkpt lat="51.8211979140" lon="-2.0667120349"><ele>191.71</ele><time>2023-10-11T10:24:44Z</time></trkpt><trkpt lat="51.8212308548" lon="-2.0668720454"><ele>191.71</ele><time>2023-10-11T10:24:57Z</time></trkpt><trkpt lat="51.8212699145" lon="-2.0669330657"><ele>191.71</ele><time>2023-10-11T10:25:12Z</time></trkpt><trkpt lat="51.8213477824" lon="-2.0669376757"><ele>191.71</ele><time>2023-10-11T10:25:29Z</time></trkpt><trkpt lat="51.8214134127" lon="-2.0669225045"><ele>191.71</ele><time>2023-10-11T10:25:39Z</time></trkpt><trkpt lat="51.8214904424" lon="-2.0669208281"><ele>190.20</ele><time>2023-10-11T10:25:51Z</time></trkpt><trkpt lat="51.8215397280" lon="-2.0669215824"><ele>189.20</ele><time>2023-10-11T10:26:08Z</time></trkpt><trkpt lat="51.8215761054" lon="-2.0669302158"><ele>188.47</ele><time>2023-10-11T10:26:23Z</time></trkpt><trkpt lat="51.8215735070" lon="-2.0669481531"><ele>188.47</ele><time>2023-10-11T10:26:51Z</time></trkpt><trkpt lat="51.8215821404" lon="-2.0669846144"><ele>188.48</ele><time>2023-10-11T10:27:09Z</time></trkpt><trkpt lat="51.8216187693" lon="-2.0670164656"><ele>188.32</ele><time>2023-10-11T10:27:28Z</time></trkpt><trkpt lat="51.8216540571" lon="-2.0670715347"><ele>188.19</ele><time>2023-10-11T10:27:45Z</time></trkpt><trkpt lat="51.8217192683" lon="-2.0672102552"><ele>188.45</ele><time>2023-10-11T10:27:58Z</time></trkpt><trkpt lat="51.8217801210" lon="-2.0673337206"><ele>188.27</ele><time>2023-10-11T10:28:09Z</time></trkpt><trkpt lat="51.8218164146" lon="-2.0674210601"><ele>188.01</ele><time>2023-10-11T10:28:21Z</time></trkpt><trkpt lat="51.8218772672" lon="-2.0675412565"><ele>187.99</ele><time>2023-10-11T10:28:33Z</time></trkpt><trkpt lat="51.8219514471" lon="-2.0676674042"><ele>187.08</ele><time>2023-10-11T10:28:47Z</time></trkpt><trkpt lat="51.8220153172" lon="-2.0678114891"><ele>186.09</ele><time>2023-10-11T10:29:02Z</time></trkpt><trkpt lat="51.8220742419" lon="-2.0679389779"><ele>185.41</ele><time>2023-10-11T10:29:17Z</time></trkpt><trkpt lat="51.8221169058" lon="-2.0680187736"><ele>185.52</ele><time>2023-10-11T10:29:34Z</time></trkpt><trkpt lat="51.8221507687" lon="-2.0680616051"><ele>185.42</ele><time>2023-10-11T10:29:40Z</time></trkpt><trkpt lat="51.8222341686" lon="-2.0681690611"><ele>185.34</ele><time>2023-10-11T10:29:55Z</time></trkpt><trkpt lat="51.8223173171" lon="-2.0682841446"><ele>185.69</ele><time>2023-10-11T10:30:09Z</time></trkpt><trkpt lat="51.8224109430" lon="-2.0684111305"><ele>184.78</ele><time>2023-10-11T10:30:29Z</time></trkpt><trkpt lat="51.8225199077" lon="-2.0685455762"><ele>184.78</ele><time>2023-10-11T10:30:50Z</time></trkpt><trkpt lat="51.8225630745" lon="-2.0685777627"><ele>184.78</ele><time>2023-10-11T10:31:09Z</time></trkpt><trkpt lat="51.8225640804" lon="-2.0685832947"><ele>181.59</ele><time>2023-10-11T10:31:28Z</time></trkpt><trkpt lat="51.8225671817" lon="-2.0685778465"><ele>181.55</ele><time>2023-10-11T10:31:29Z</time></trkpt><trkpt lat="51.8225971889" lon="-2.0684330072"><ele>180.80</ele><time>2023-10-11T10:31:47Z</time></trkpt><trkpt lat="51.8226007931" lon="-2.0683106314"><ele>179.90</ele><time>2023-10-11T10:32:03Z</time></trkpt><trkpt lat="51.8226156291" lon="-2.0681647863"><ele>178.55</ele><time>2023-10-11T10:32:22Z</time></trkpt><trkpt lat="51.8226186465" lon="-2.0679922029"><ele>177.49</ele><time>2023-10-11T10:32:37Z</time></trkpt><trkpt lat="51.8226568680" lon="-2.0678259060"><ele>176.18</ele><time>2023-10-11T10:32:54Z</time></trkpt><trkpt lat="51.8226758111" lon="-2.0676766243"><ele>174.26</ele><time>2023-10-11T10:33:12Z</time></trkpt><trkpt lat="51.8226973526" lon="-2.0674793981"><ele>172.50</ele><time>2023-10-11T10:33:31Z</time></trkpt><trkpt lat="51.8226800021" lon="-2.0673267636"><ele>171.50</ele><time>2023-10-11T10:33:50Z</time></trkpt><trkpt lat="51.8226592988" lon="-2.0671799127"><ele>170.77</ele><time>2023-10-11T10:34:10Z</time></trkpt><trkpt lat="51.8226858694" lon="-2.0670158789"><ele>169.42</ele><time>2023-10-11T10:34:25Z</time></trkpt><trkpt lat="51.8227085844" lon="-2.0669033937"><ele>168.13</ele><time>2023-10-11T10:34:43Z</time></trkpt><trkpt lat="51.8227458838" lon="-2.0668284595"><ele>167.03</ele><time>2023-10-11T10:34:57Z</time></trkpt><trkpt lat="51.8228180520" lon="-2.0667516813"><ele>166.03</ele><time>2023-10-11T10:35:19Z</time></trkpt><trkpt lat="51.8228587043" lon="-2.0667059161"><ele>165.49</ele><time>2023-10-11T10:35:37Z</time></trkpt><trkpt lat="51.8228221592" lon="-2.0666188281"><ele>164.43</ele><time>2023-10-11T10:35:59Z</time></trkpt><trkpt lat="51.8227995280" lon="-2.0664320793"><ele>164.01</ele><time>2023-10-11T10:36:15Z</time></trkpt><trkpt lat="51.8227737956" lon="-2.0662672073"><ele>163.57</ele><time>2023-10-11T10:36:31Z</time></trkpt><trkpt lat="51.8227308802" lon="-2.0660604257"><ele>162.25</ele><time>2023-10-11T10:36:49Z</time></trkpt><trkpt lat="51.8226721231" lon="-2.0658927038"><ele>161.41</ele><time>2023-10-11T10:37:04Z</time></trkpt><trkpt lat="51.8226732127" lon="-2.0657142531"><ele>159.69</ele><time>2023-10-11T10:37:23Z</time></trkpt><trkpt lat="51.8226795830" lon="-2.0656767022"><ele>159.29</ele><time>2023-10-11T10:37:27Z</time></trkpt><trkpt lat="51.8226874620" lon="-2.0655716769"><ele>158.03</ele><time>2023-10-11T10:37:42Z</time></trkpt><trkpt lat="51.8227085005" lon="-2.0655637980"><ele>156.52</ele><time>2023-10-11T10:37:58Z</time></trkpt><trkpt lat="51.8227748014" lon="-2.0656085573"><ele>156.18</ele><time>2023-10-11T10:38:24Z</time></trkpt><trkpt lat="51.8227960076" lon="-2.0654990058"><ele>155.85</ele><time>2023-10-11T10:38:46Z</time></trkpt><trkpt lat="51.8228174653" lon="-2.0653186273"><ele>155.22</ele><time>2023-10-11T10:39:04Z</time></trkpt><trkpt lat="51.8228157051" lon="-2.0651349798"><ele>154.52</ele><time>2023-10-11T10:39:18Z</time></trkpt><trkpt lat="51.8228312116" lon="-2.0649896376"><ele>153.39</ele><time>2023-10-11T10:39:33Z</time></trkpt><trkpt lat="51.8228152860" lon="-2.0648831874"><ele>152.62</ele><time>2023-10-11T10:39:55Z</time></trkpt><trkpt lat="51.8228069879" lon="-2.0647596382"><ele>151.91</ele><time>2023-10-11T10:40:11Z</time></trkpt><trkpt lat="51.8228193931" lon="-2.0646755677"><ele>151.25</ele><time>2023-10-11T10:40:27Z</time></trkpt><trkpt lat="51.8228591233" lon="-2.0645044930"><ele>150.07</ele><time>2023-10-11T10:40:42Z</time></trkpt><trkpt lat="51.8228535913" lon="-2.0643133018"><ele>149.07</ele><time>2023-10-11T10:40:57Z</time></trkpt><trkpt lat="51.8228510767" lon="-2.0642996393"><ele>148.60</ele><time>2023-10-11T10:41:15Z</time></trkpt><trkpt lat="51.8228586204" lon="-2.0641591586"><ele>148.22</ele><time>2023-10-11T10:41:30Z</time></trkpt><trkpt lat="51.8228919804" lon="-2.0639915206"><ele>147.17</ele><time>2023-10-11T10:41:47Z</time></trkpt><trkpt lat="51.8229046371" lon="-2.0638502017"><ele>146.53</ele><time>2023-10-11T10:42:02Z</time></trkpt><trkpt lat="51.8228796590" lon="-2.0636704937"><ele>146.16</ele><time>2023-10-11T10:42:19Z</time></trkpt><trkpt lat="51.8228444550" lon="-2.0635407418"><ele>145.52</ele><time>2023-10-11T10:42:38Z</time></trkpt><trkpt lat="51.8228302896" lon="-2.0633882750"><ele>144.98</ele><time>2023-10-11T10:42:53Z</time></trkpt><trkpt lat="51.8228453770" lon="-2.0632146858"><ele>144.28</ele><time>2023-10-11T10:43:08Z</time></trkpt><trkpt lat="51.8228472210" lon="-2.0631419308"><ele>143.72</ele><time>2023-10-11T10:43:16Z</time></trkpt><trkpt lat="51.8228768930" lon="-2.0629754663"><ele>143.26</ele><time>2023-10-11T10:43:29Z</time></trkpt><trkpt lat="51.8229255918" lon="-2.0628908928"><ele>142.60</ele><time>2023-10-11T10:43:45Z</time></trkpt><trkpt lat="51.8229093309" lon="-2.0628338121"><ele>142.34</ele><time>2023-10-11T10:44:00Z</time></trkpt><trkpt lat="51.8228983507" lon="-2.0627560280"><ele>141.98</ele><time>2023-10-11T10:44:15Z</time></trkpt><trkpt lat="51.8229241669" lon="-2.0625554491"><ele>141.19</ele><time>2023-10-11T10:44:28Z</time></trkpt><trkpt lat="51.8229646515" lon="-2.0624259487"><ele>140.24</ele><time>2023-10-11T10:44:43Z</time></trkpt><trkpt lat="51.8229944911" lon="-2.0622930955"><ele>139.91</ele><time>2023-10-11T10:45:01Z</time></trkpt><trkpt lat="51.8230446987" lon="-2.0621071849"><ele>139.47</ele><time>2023-10-11T10:45:23Z</time></trkpt><trkpt lat="51.8231021985" lon="-2.0620048419"><ele>139.14</ele><time>2023-10-11T10:45:39Z</time></trkpt><trkpt lat="51.8231534958" lon="-2.0618104655"><ele>138.29</ele><time>2023-10-11T10:45:57Z</time></trkpt><trkpt lat="51.8232442718" lon="-2.0615948830"><ele>137.56</ele><time>2023-10-11T10:46:16Z</time></trkpt><trkpt lat="51.8232798111" lon="-2.0614528097"><ele>136.91</ele><time>2023-10-11T10:46:34Z</time></trkpt><trkpt lat="51.8233218882" lon="-2.0612777118"><ele>136.31</ele><time>2023-10-11T10:46:53Z</time></trkpt><trkpt lat="51.8233420048" lon="-2.0611199643"><ele>135.83</ele><time>2023-10-11T10:47:08Z</time></trkpt><trkpt lat="51.8233890273" lon="-2.0610027015"><ele>135.30</ele><time>2023-10-11T10:47:26Z</time></trkpt><trkpt lat="51.8234715890" lon="-2.0609551761"><ele>135.45</ele><time>2023-10-11T10:47:49Z</time></trkpt><trkpt lat="51.8234777916" lon="-2.0607696846"><ele>135.26</ele><time>2023-10-11T10:48:03Z</time></trkpt><trkpt lat="51.8234658055" lon="-2.0606865361"><ele>134.79</ele><time>2023-10-11T10:48:21Z</time></trkpt><trkpt lat="51.8235059548" lon="-2.0604880527"><ele>134.50</ele><time>2023-10-11T10:48:37Z</time></trkpt><trkpt lat="51.8235294241" lon="-2.0603325684"><ele>134.16</ele><time>2023-10-11T10:48:52Z</time></trkpt><trkpt lat="51.8235592637" lon="-2.0601164829"><ele>133.74</ele><time>2023-10-11T10:49:09Z</time></trkpt><trkpt lat="51.8235735968" lon="-2.0600319933"><ele>133.39</ele><time>2023-10-11T10:49:21Z</time></trkpt><trkpt lat="51.8236129917" lon="-2.0598537941"><ele>133.30</ele><time>2023-10-11T10:49:35Z</time></trkpt><trkpt lat="51.8236217927" lon="-2.0597475953"><ele>133.15</ele><time>2023-10-11T10:49:53Z</time></trkpt><trkpt lat="51.8236356229" lon="-2.0597108826"><ele>133.07</ele><time>2023-10-11T10:50:14Z</time></trkpt><trkpt lat="51.8236527219" lon="-2.0594683941"><ele>133.27</ele><time>2023-10-11T10:50:33Z</time></trkpt><trkpt lat="51.8236787897" lon="-2.0592742693"><ele>132.67</ele><time>2023-10-11T10:50:49Z</time></trkpt><trkpt lat="51.8236933742" lon="-2.0591768716"><ele>132.13</ele><time>2023-10-11T10:51:06Z</time></trkpt><trkpt lat="51.8236699887" lon="-2.0590389054"><ele>131.53</ele><time>2023-10-11T10:51:20Z</time></trkpt><trkpt lat="51.8236853275" lon="-2.0589016937"><ele>131.02</ele><time>2023-10-11T10:51:38Z</time></trkpt><trkpt lat="51.8237115629" lon="-2.0587826706"><ele>130.74</ele><time>2023-10-11T10:51:58Z</time></trkpt><trkpt lat="51.8237459287" lon="-2.0586860273"><ele>130.26</ele><time>2023-10-11T10:52:15Z</time></trkpt><trkpt lat="51.8237456772" lon="-2.0585105103"><ele>129.86</ele><time>2023-10-11T10:52:29Z</time></trkpt><trkpt lat="51.8237958848" lon="-2.0583818480"><ele>129.33</ele><time>2023-10-11T10:52:47Z</time></trkpt><trkpt lat="51.8238636106" lon="-2.0582050737"><ele>128.95</ele><time>2023-10-11T10:53:04Z</time></trkpt><trkpt lat="51.8238533847" lon="-2.0581096876"><ele>128.38</ele><time>2023-10-11T10:53:22Z</time></trkpt><trkpt lat="51.8238481041" lon="-2.0579857193"><ele>128.43</ele><time>2023-10-11T10:53:36Z</time></trkpt><trkpt lat="51.8238622695" lon="-2.0580232702"><ele>127.98</ele><time>2023-10-11T10:53:58Z</time></trkpt><trkpt lat="51.8238586653" lon="-2.0580114517"><ele>127.97</ele><time>2023-10-11T10:54:00Z</time></trkpt><trkpt lat="51.8238120619" lon="-2.0579005592"><ele>127.70</ele><time>2023-10-11T10:54:18Z</time></trkpt><trkpt lat="51.8238662090" lon="-2.0575718209"><ele>127.34</ele><time>2023-10-11T10:54:34Z</time></trkpt><trkpt lat="51.8238827214" lon="-2.0572839025"><ele>126.90</ele><time>2023-10-11T10:54:51Z</time></trkpt><trkpt lat="51.8239033408" lon="-2.0571523067"><ele>126.86</ele><time>2023-10-11T10:55:02Z</time></trkpt><trkpt lat="51.8238443322" lon="-2.0570216328"><ele>126.37</ele><time>2023-10-11T10:55:21Z</time></trkpt><trkpt lat="51.8238112237" lon="-2.0569985826"><ele>126.05</ele><time>2023-10-11T10:55:44Z</time></trkpt><trkpt lat="51.8237798754" lon="-2.0570079703"><ele>126.26</ele><time>2023-10-11T10:56:12Z</time></trkpt><trkpt lat="51.8237965554" lon="-2.0569259115"><ele>126.13</ele><time>2023-10-11T10:56:36Z</time></trkpt><trkpt lat="51.8237534724" lon="-2.0569405798"><ele>126.13</ele><time>2023-10-11T10:56:56Z</time></trkpt><trkpt lat="51.8237128202" lon="-2.0569478720"><ele>126.13</ele><time>2023-10-11T10:57:17Z</time></trkpt><trkpt lat="51.8236792926" lon="-2.0568569284"><ele>126.13</ele><time>2023-10-11T10:57:35Z</time></trkpt><trkpt lat="51.8236533925" lon="-2.0567698404"><ele>126.13</ele><time>2023-10-11T10:57:53Z</time></trkpt><trkpt lat="51.8236488663" lon="-2.0567374025"><ele>126.13</ele><time>2023-10-11T10:58:13Z</time></trkpt><trkpt lat="51.8236311805" lon="-2.0567051321"><ele>126.13</ele><time>2023-10-11T10:58:35Z</time></trkpt><trkpt lat="51.8236787058" lon="-2.0566555113"><ele>126.13</ele><time>2023-10-11T10:58:55Z</time></trkpt><trkpt lat="51.8236790411" lon="-2.0566495601"><ele>126.13</ele><time>2023-10-11T10:59:20Z</time></trkpt><trkpt lat="51.8235929590" lon="-2.0565141924"><ele>126.13</ele><time>2023-10-11T10:59:41Z</time></trkpt><trkpt lat="51.8236051127" lon="-2.0563975163"><ele>126.13</ele><time>2023-10-11T10:59:59Z</time></trkpt><trkpt lat="51.8236133270" lon="-2.0563153736"><ele>126.13</ele><time>2023-10-11T11:00:15Z</time></trkpt><trkpt lat="51.8236289173" lon="-2.0561624877"><ele>126.13</ele><time>2023-10-11T11:00:29Z</time></trkpt><trkpt lat="51.8236437533" lon="-2.0560759865"><ele>126.13</ele><time>2023-10-11T11:00:49Z</time></trkpt><trkpt lat="51.8236552365" lon="-2.0560588036"><ele>126.13</ele><time>2023-10-11T11:01:17Z</time></trkpt><trkpt lat="51.8236663006" lon="-2.0560588874"><ele>122.16</ele><time>2023-10-11T11:01:34Z</time></trkpt><trkpt lat="51.8236667197" lon="-2.0560569596"><ele>122.04</ele><time>2023-10-11T11:01:35Z</time></trkpt><trkpt lat="51.8236099742" lon="-2.0559605677"><ele>123.54</ele><time>2023-10-11T11:02:01Z</time></trkpt><trkpt lat="51.8236050289" lon="-2.0559348352"><ele>128.50</ele><time>2023-10-11T11:02:07Z</time></trkpt><trkpt lat="51.8236008380" lon="-2.0559303928"><ele>132.06</ele><time>2023-10-11T11:02:08Z</time></trkpt><trkpt lat="51.8235979881" lon="-2.0558945183"><ele>137.09</ele><time>2023-10-11T11:02:12Z</time></trkpt><trkpt lat="51.8235918693" lon="-2.0558792632"><ele>133.17</ele><time>2023-10-11T11:02:16Z</time></trkpt><trkpt lat="51.8235896062" lon="-2.0558776706"><ele>129.97</ele><time>2023-10-11T11:02:17Z</time></trkpt><trkpt lat="51.8235826492" lon="-2.0558635052"><ele>126.72</ele><time>2023-10-11T11:02:20Z</time></trkpt><trkpt lat="51.8235895224" lon="-2.0558065921"><ele>123.71</ele><time>2023-10-11T11:02:36Z</time></trkpt><trkpt lat="51.8236809690" lon="-2.0558562968"><ele>123.37</ele><time>2023-10-11T11:02:55Z</time></trkpt><trkpt lat="51.8236926198" lon="-2.0557800215"><ele>123.21</ele><time>2023-10-11T11:03:14Z</time></trkpt><trkpt lat="51.8237048574" lon="-2.0557416324"><ele>123.23</ele><time>2023-10-11T11:03:32Z</time></trkpt><trkpt lat="51.8237639498" lon="-2.0557604078"><ele>122.11</ele><time>2023-10-11T11:03:55Z</time></trkpt><trkpt lat="51.8237995729" lon="-2.0556265488"><ele>124.23</ele><time>2023-10-11T11:04:13Z</time></trkpt><trkpt lat="51.8237852398" lon="-2.0555474237"><ele>124.94</ele><time>2023-10-11T11:04:18Z</time></trkpt><trkpt lat="51.8237118144" lon="-2.0553127304"><ele>126.07</ele><time>2023-10-11T11:04:31Z</time></trkpt><trkpt lat="51.8237248063" lon="-2.0550088864"><ele>126.47</ele><time>2023-10-11T11:04:45Z</time></trkpt><trkpt lat="51.8237594236" lon="-2.0547037851"><ele>125.53</ele><time>2023-10-11T11:05:01Z</time></trkpt><trkpt lat="51.8238030095" lon="-2.0544944890"><ele>124.98</ele><time>2023-10-11T11:05:17Z</time></trkpt><trkpt lat="51.8237983994" lon="-2.0542655792"><ele>124.63</ele><time>2023-10-11T11:05:37Z</time></trkpt><trkpt lat="51.8237973098" lon="-2.0541709475"><ele>124.29</ele><time>2023-10-11T11:05:57Z</time></trkpt><trkpt lat="51.8237825576" lon="-2.0540875476"><ele>124.06</ele><time>2023-10-11T11:06:21Z</time></trkpt><trkpt lat="51.8237953819" lon="-2.0541387610"><ele>123.84</ele><time>2023-10-11T11:06:44Z</time></trkpt><trkpt lat="51.8238299992" lon="-2.0540941693"><ele>123.78</ele><time>2023-10-11T11:07:12Z</time></trkpt><trkpt lat="51.8238176778" lon="-2.0539738890"><ele>123.49</ele><time>2023-10-11T11:07:37Z</time></trkpt><trkpt lat="51.8238412309" lon="-2.0537635870"><ele>123.04</ele><time>2023-10-11T11:07:51Z</time></trkpt><trkpt lat="51.8238462601" lon="-2.0536609087"><ele>122.74</ele><time>2023-10-11T11:07:55Z</time></trkpt><trkpt lat="51.8238515407" lon="-2.0534638502"><ele>122.19</ele><time>2023-10-11T11:08:07Z</time></trkpt><trkpt lat="51.8238580786" lon="-2.0532798674"><ele>121.94</ele><time>2023-10-11T11:08:16Z</time></trkpt><trkpt lat="51.8239236251" lon="-2.0529865008"><ele>121.32</ele><time>2023-10-11T11:08:29Z</time></trkpt><trkpt lat="51.8239351083" lon="-2.0529054478"><ele>121.03</ele><time>2023-10-11T11:08:34Z</time></trkpt><trkpt lat="51.8240086176" lon="-2.0526824892"><ele>119.98</ele><time>2023-10-11T11:08:47Z</time></trkpt><trkpt lat="51.8240902573" lon="-2.0523590315"><ele>118.88</ele><time>2023-10-11T11:09:07Z</time></trkpt><trkpt lat="51.8241548818" lon="-2.0521494001"><ele>118.00</ele><time>2023-10-11T11:09:24Z</time></trkpt><trkpt lat="51.8241812009" lon="-2.0520256832"><ele>117.80</ele><time>2023-10-11T11:09:32Z</time></trkpt><trkpt lat="51.8242265470" lon="-2.0518309716"><ele>117.24</ele><time>2023-10-11T11:09:48Z</time></trkpt><trkpt lat="51.8242464960" lon="-2.0516784210"><ele>116.84</ele><time>2023-10-11T11:10:02Z</time></trkpt><trkpt lat="51.8242868967" lon="-2.0514718071"><ele>115.91</ele><time>2023-10-11T11:10:17Z</time></trkpt><trkpt lat="51.8242950272" lon="-2.0513817854"><ele>115.84</ele><time>2023-10-11T11:10:38Z</time></trkpt><trkpt lat="51.8243313208" lon="-2.0513197593"><ele>115.94</ele><time>2023-10-11T11:11:02Z</time></trkpt><trkpt lat="51.8243474141" lon="-2.0512676239"><ele>115.97</ele><time>2023-10-11T11:11:22Z</time></trkpt><trkpt lat="51.8243683688" lon="-2.0512292348"><ele>115.95</ele><time>2023-10-11T11:11:46Z</time></trkpt><trkpt lat="51.8244233541" lon="-2.0511260536"><ele>115.95</ele><time>2023-10-11T11:12:03Z</time></trkpt><trkpt lat="51.8244513497" lon="-2.0509720780"><ele>115.95</ele><time>2023-10-11T11:12:23Z</time></trkpt><trkpt lat="51.8244784232" lon="-2.0507989917"><ele>115.95</ele><time>2023-10-11T11:12:38Z</time></trkpt><trkpt lat="51.8245063350" lon="-2.0506576728"><ele>115.95</ele><time>2023-10-11T11:12:54Z</time></trkpt><trkpt lat="51.8245514296" lon="-2.0504454430"><ele>115.95</ele><time>2023-10-11T11:13:15Z</time></trkpt><trkpt lat="51.8245898187" lon="-2.0503816567"><ele>113.11</ele><time>2023-10-11T11:13:27Z</time></trkpt><trkpt lat="51.8246508390" lon="-2.0502310339"><ele>113.32</ele><time>2023-10-11T11:13:46Z</time></trkpt><trkpt lat="51.8247264437" lon="-2.0501148608"><ele>113.08</ele><time>2023-10-11T11:14:01Z</time></trkpt><trkpt lat="51.8247723766" lon="-2.0499724522"><ele>113.58</ele><time>2023-10-11T11:14:17Z</time></trkpt><trkpt lat="51.8248266075" lon="-2.0498736296"><ele>114.62</ele><time>2023-10-11T11:14:30Z</time></trkpt><trkpt lat="51.8248758093" lon="-2.0497997012"><ele>115.60</ele><time>2023-10-11T11:14:44Z</time></trkpt><trkpt lat="51.8249272741" lon="-2.0496768225"><ele>116.36</ele><time>2023-10-11T11:15:01Z</time></trkpt><trkpt lat="51.8250129372" lon="-2.0495524351"><ele>117.05</ele><time>2023-10-11T11:15:17Z</time></trkpt><trkpt lat="51.8250785675" lon="-2.0494092721"><ele>117.26</ele><time>2023-10-11T11:15:32Z</time></trkpt><trkpt lat="51.8251233269" lon="-2.0492714737"><ele>117.11</ele><time>2023-10-11T11:15:44Z</time></trkpt><trkpt lat="51.8252138514" lon="-2.0491015725"><ele>117.20</ele><time>2023-10-11T11:16:00Z</time></trkpt><trkpt lat="51.8252821639" lon="-2.0489408914"><ele>117.18</ele><time>2023-10-11T11:16:22Z</time></trkpt><trkpt lat="51.8253303599" lon="-2.0487910230"><ele>117.20</ele><time>2023-10-11T11:16:39Z</time></trkpt><trkpt lat="51.8254130892" lon="-2.0486481115"><ele>117.20</ele><time>2023-10-11T11:16:56Z</time></trkpt><trkpt lat="51.8254945613" lon="-2.0485611912"><ele>117.20</ele><time>2023-10-11T11:17:07Z</time></trkpt><trkpt lat="51.8255045358" lon="-2.0484837424"><ele>117.20</ele><time>2023-10-11T11:17:25Z</time></trkpt><trkpt lat="51.8255478702" lon="-2.0483612828"><ele>117.20</ele><time>2023-10-11T11:17:39Z</time></trkpt><trkpt lat="51.8255959824" lon="-2.0482161921"><ele>117.13</ele><time>2023-10-11T11:17:52Z</time></trkpt><trkpt lat="51.8256553262" lon="-2.0480509847"><ele>117.73</ele><time>2023-10-11T11:18:06Z</time></trkpt><trkpt lat="51.8257508799" lon="-2.0478646550"><ele>117.45</ele><time>2023-10-11T11:18:29Z</time></trkpt><trkpt lat="51.8257858325" lon="-2.0478411857"><ele>116.56</ele><time>2023-10-11T11:18:47Z</time></trkpt><trkpt lat="51.8258982338" lon="-2.0477176365"><ele>116.25</ele><time>2023-10-11T11:19:08Z</time></trkpt><trkpt lat="51.8259729166" lon="-2.0476546884"><ele>115.75</ele><time>2023-10-11T11:19:21Z</time></trkpt><trkpt lat="51.8260616809" lon="-2.0475981943"><ele>115.03</ele><time>2023-10-11T11:19:35Z</time></trkpt><trkpt lat="51.8261235394" lon="-2.0475474000"><ele>114.17</ele><time>2023-10-11T11:19:46Z</time></trkpt><trkpt lat="51.8261757586" lon="-2.0475249365"><ele>113.77</ele><time>2023-10-11T11:19:53Z</time></trkpt><trkpt lat="51.8262393773" lon="-2.0474409498"><ele>113.10</ele><time>2023-10-11T11:20:08Z</time></trkpt><trkpt lat="51.8262226973" lon="-2.0473306440"><ele>113.17</ele><time>2023-10-11T11:20:16Z</time></trkpt><trkpt lat="51.8262213562" lon="-2.0472576376"><ele>113.25</ele><time>2023-10-11T11:20:21Z</time></trkpt><trkpt lat="51.8262345158" lon="-2.0472272951"><ele>113.63</ele><time>2023-10-11T11:20:35Z</time></trkpt><trkpt lat="51.8262021616" lon="-2.0472205058"><ele>113.74</ele><time>2023-10-11T11:20:47Z</time></trkpt><trkpt lat="51.8262417242" lon="-2.0471881516"><ele>113.86</ele><time>2023-10-11T11:21:05Z</time></trkpt><trkpt lat="51.8262191769" lon="-2.0472361799"><ele>113.93</ele><time>2023-10-11T11:21:23Z</time></trkpt><trkpt lat="51.8262325879" lon="-2.0472227689"><ele>114.50</ele><time>2023-10-11T11:21:38Z</time></trkpt></trkseg></trk></gpx>